Time;durP1;ratioP1;P1;durP2;ratioP2;P2;SDS_P1;SDS_P2;PMS_P1;PMS_P2;Temp;Humidity;BMP_temperature;BMP_pressure;BME280_temperature;BME280_humidity;BME280_pressure;Samples;Min_cycle;Max_cycle;Signal;HPM_P1;HPM_P2
2022/05/12 00:02:18;;;;;;;12.38;7.45;;;20.00;68.50;;;;;;5054334;28;20021;-64
2022/05/12 00:04:44;;;;;;;17.65;7.80;;;20.00;68.50;;;;;;5054428;28;20432;-64
2022/05/12 00:07:10;;;;;;;15.60;7.13;;;20.00;68.40;;;;;;5054059;28;20132;-64
2022/05/12 00:09:36;;;;;;;19.63;7.70;;;19.90;68.20;;;;;;5054092;28;20031;-64
2022/05/12 00:12:02;;;;;;;11.82;5.95;;;19.90;68.50;;;;;;5053893;28;20381;-65
2022/05/12 00:14:28;;;;;;;13.88;6.85;;;19.90;68.20;;;;;;5054163;28;20032;-64
2022/05/12 00:16:56;;;;;;;18.00;6.10;;;19.80;68.20;;;;;;5053917;28;20021;-65
2022/05/12 00:19:26;;;;;;;15.77;7.18;;;19.80;68.90;;;;;;5054019;28;20025;-64
2022/05/12 00:21:52;;;;;;;16.35;6.57;;;19.80;69.60;;;;;;5054352;28;20082;-64
2022/05/12 00:24:17;;;;;;;13.93;6.88;;;19.80;69.20;;;;;;5054336;28;20416;-64
2022/05/12 00:26:43;;;;;;;14.27;7.00;;;19.70;68.80;;;;;;5053790;28;20071;-65
2022/05/12 00:29:09;;;;;;;16.38;7.20;;;19.70;68.80;;;;;;5052950;28;20404;-64
2022/05/12 00:31:37;;;;;;;16.52;6.35;;;19.70;68.70;;;;;;5053675;28;20148;-65
2022/05/12 00:34:08;;;;;;;12.48;7.75;;;19.70;68.60;;;;;;5053411;28;20025;-64
2022/05/12 00:36:35;;;;;;;20.10;6.90;;;19.70;69.20;;;;;;5053743;28;20029;-64
2022/05/12 00:39:01;;;;;;;15.15;7.03;;;19.60;69.10;;;;;;5053815;28;20027;-64
2022/05/12 00:41:27;;;;;;;20.52;7.03;;;19.60;69.20;;;;;;5053591;28;20110;-64
2022/05/12 00:43:59;;;;;;;14.27;6.50;;;19.60;69.70;;;;;;5053589;28;20083;-65
2022/05/12 00:46:27;;;;;;;19.45;7.05;;;19.60;69.70;;;;;;5053539;28;20037;-64
2022/05/12 00:48:59;;;;;;;15.57;6.63;;;19.50;69.60;;;;;;5053180;28;20130;-65
2022/05/12 00:51:35;;;;;;;18.13;7.22;;;19.50;69.40;;;;;;5053406;28;20174;-64
2022/05/12 00:54:10;;;;;;;14.82;6.43;;;19.50;69.50;;;;;;5053362;28;20017;-65
2022/05/12 00:56:36;;;;;;;15.85;6.63;;;19.50;69.50;;;;;;5053154;28;20478;-64
2022/05/12 00:59:08;;;;;;;12.40;6.70;;;19.50;70.00;;;;;;5050583;28;20025;-64
2022/05/12 01:01:34;;;;;;;15.65;6.95;;;19.40;69.80;;;;;;5050670;28;20028;-65
2022/05/12 01:04:01;;;;;;;11.35;6.60;;;19.40;70.00;;;;;;5051187;28;20023;-65
2022/05/12 01:06:27;;;;;;;12.63;6.43;;;19.30;68.80;;;;;;5052931;28;20103;-65
2022/05/12 01:08:52;;;;;;;13.27;6.63;;;19.30;68.80;;;;;;5053032;28;20480;-65
2022/05/12 01:11:21;;;;;;;16.15;7.57;;;19.30;69.60;;;;;;5053303;28;20477;-69
2022/05/12 01:14:00;;;;;;;18.10;7.32;;;19.30;70.30;;;;;;5053018;28;20051;-69
2022/05/12 01:16:46;;;;;;;16.73;7.90;;;19.30;70.40;;;;;;5052990;28;20028;-64
2022/05/12 01:19:18;;;;;;;18.55;7.78;;;19.20;70.10;;;;;;5052922;28;20525;-68
2022/05/12 01:21:45;;;;;;;19.08;7.60;;;19.20;70.30;;;;;;5052901;28;20017;-68
2022/05/12 01:24:12;;;;;;;15.25;7.75;;;19.20;70.80;;;;;;5053026;28;20085;-65
2022/05/12 01:26:38;;;;;;;18.75;7.45;;;19.10;70.90;;;;;;5052766;28;20069;-66
2022/05/12 01:29:05;;;;;;;11.85;7.10;;;19.10;70.80;;;;;;5052315;28;20541;-69
2022/05/12 01:31:32;;;;;;;18.83;7.60;;;19.10;70.90;;;;;;5052533;28;20079;-65
2022/05/12 01:33:58;;;;;;;12.27;7.03;;;19.10;71.20;;;;;;5052518;28;20027;-68
2022/05/12 01:36:24;;;;;;;13.18;7.53;;;19.10;71.50;;;;;;5052540;28;20021;-69
2022/05/12 01:38:50;;;;;;;16.17;7.20;;;19.00;71.70;;;;;;5052163;28;20123;-65
2022/05/12 01:41:16;;;;;;;14.65;7.35;;;19.00;71.90;;;;;;5052665;28;20477;-64
2022/05/12 01:43:42;;;;;;;12.38;7.28;;;19.00;71.00;;;;;;5052254;28;20025;-64
2022/05/12 01:46:09;;;;;;;16.60;7.63;;;19.00;71.20;;;;;;5052761;28;20407;-64
2022/05/12 01:48:34;;;;;;;12.88;6.90;;;19.00;71.20;;;;;;5052563;28;20055;-64
2022/05/12 01:51:00;;;;;;;10.88;7.00;;;18.90;71.90;;;;;;5052945;28;20449;-66
2022/05/12 01:53:26;;;;;;;13.95;7.38;;;18.90;71.50;;;;;;5052885;28;20396;-69
2022/05/12 01:55:52;;;;;;;16.05;7.50;;;18.90;71.70;;;;;;5052580;28;20022;-68
2022/05/12 01:58:20;;;;;;;17.58;7.60;;;18.90;72.10;;;;;;5052509;28;20024;-69
2022/05/12 02:00:46;;;;;;;11.10;6.05;;;18.90;72.40;;;;;;5052482;28;20025;-68
2022/05/12 02:03:11;;;;;;;12.73;6.75;;;18.80;72.90;;;;;;5052760;28;20027;-68
2022/05/12 02:05:39;;;;;;;19.75;7.35;;;18.80;72.40;;;;;;5052669;28;20100;-64
2022/05/12 02:08:07;;;;;;;17.50;6.97;;;18.70;71.70;;;;;;5052573;28;20029;-64
2022/05/12 02:10:38;;;;;;;18.55;7.00;;;18.70;72.00;;;;;;5052593;28;20444;-64
2022/05/12 02:13:05;;;;;;;18.80;7.30;;;18.70;72.70;;;;;;5052417;28;20469;-68
2022/05/12 02:15:31;;;;;;;13.02;7.30;;;18.60;73.00;;;;;;5052423;28;20022;-64
2022/05/12 02:17:56;;;;;;;14.98;7.22;;;18.60;73.00;;;;;;5052446;28;20086;-64
2022/05/12 02:20:23;;;;;;;18.23;7.32;;;18.60;72.90;;;;;;5052475;28;20029;-64
2022/05/12 02:22:49;;;;;;;15.27;7.75;;;18.50;73.10;;;;;;5052465;28;20029;-64
2022/05/12 02:25:16;;;;;;;16.25;7.38;;;18.50;72.80;;;;;;5052593;28;20028;-69
2022/05/12 02:27:45;;;;;;;13.55;7.32;;;18.50;73.00;;;;;;5051979;28;20052;-69
2022/05/12 02:30:19;;;;;;;16.60;7.95;;;18.50;73.70;;;;;;5052540;28;20099;-64
2022/05/12 02:32:45;;;;;;;22.20;7.93;;;18.50;74.00;;;;;;5052405;28;20472;-64
2022/05/12 02:35:11;;;;;;;13.23;7.35;;;18.50;74.10;;;;;;5051897;28;20057;-64
2022/05/12 02:37:37;;;;;;;17.50;8.38;;;18.40;73.60;;;;;;5050617;28;20103;-68
2022/05/12 02:40:03;;;;;;;24.90;8.48;;;18.40;73.70;;;;;;5051918;28;20056;-65
2022/05/12 02:42:29;;;;;;;14.73;7.32;;;18.40;74.00;;;;;;5052057;28;20055;-69
2022/05/12 02:44:54;;;;;;;25.63;9.65;;;18.30;73.50;;;;;;5052202;28;20108;-68
2022/05/12 02:47:20;;;;;;;20.23;7.00;;;18.30;73.10;;;;;;5052402;28;20040;-64
2022/05/12 02:49:46;;;;;;;17.80;7.82;;;18.30;73.00;;;;;;5052369;28;20376;-64
2022/05/12 02:52:11;;;;;;;19.52;7.63;;;18.20;73.20;;;;;;5054492;28;20021;-67
2022/05/12 02:54:37;;;;;;;25.73;8.02;;;18.20;72.90;;;;;;5055651;28;20017;-64
2022/05/12 02:57:03;;;;;;;20.23;8.75;;;18.10;73.40;;;;;;5053387;28;20040;-64
2022/05/12 02:59:29;;;;;;;20.17;8.15;;;18.10;74.10;;;;;;5055359;28;20481;-64
2022/05/12 03:01:55;;;;;;;16.50;7.97;;;18.20;74.40;;;;;;5055286;28;20025;-68
2022/05/12 03:04:21;;;;;;;21.85;8.07;;;18.20;74.20;;;;;;5055403;28;20504;-64
2022/05/12 03:06:47;;;;;;;22.98;8.15;;;18.10;74.30;;;;;;5055450;28;20029;-69
2022/05/12 03:09:13;;;;;;;22.90;8.45;;;18.10;74.60;;;;;;5055341;28;20036;-64
2022/05/12 03:11:39;;;;;;;18.35;7.35;;;18.10;74.30;;;;;;5055297;28;20575;-68
2022/05/12 03:14:04;;;;;;;17.90;7.85;;;18.00;73.30;;;;;;5055644;28;20094;-66
2022/05/12 03:16:30;;;;;;;18.35;7.60;;;18.00;73.10;;;;;;5055187;28;20481;-65
2022/05/12 03:18:56;;;;;;;17.50;7.43;;;18.00;73.40;;;;;;5055299;28;20066;-64
2022/05/12 03:21:22;;;;;;;14.68;7.78;;;18.00;73.40;;;;;;5055242;28;20025;-64
2022/05/12 03:23:48;;;;;;;16.63;7.95;;;18.00;73.40;;;;;;5055017;28;20051;-65
2022/05/12 03:26:15;;;;;;;12.25;7.53;;;18.00;74.10;;;;;;5054986;28;20044;-68
2022/05/12 03:28:40;;;;;;;12.68;7.60;;;18.00;74.00;;;;;;5054778;28;20033;-67
2022/05/12 03:31:07;;;;;;;11.55;7.68;;;18.00;74.20;;;;;;5054960;28;20029;-64
2022/05/12 03:33:35;;;;;;;17.40;7.72;;;18.00;74.10;;;;;;5037119;28;20432;-64
2022/05/12 03:36:00;;;;;;;16.60;7.60;;;18.00;74.50;;;;;;5054720;28;20051;-64
2022/05/12 03:38:27;;;;;;;16.10;7.43;;;18.00;75.00;;;;;;5054936;28;20508;-64
2022/05/12 03:40:54;;;;;;;17.60;7.68;;;18.00;73.90;;;;;;5054883;28;20099;-64
2022/05/12 03:46:05;;;;;;;17.23;8.15;;;18.00;74.30;;;;;;5055110;28;20122;-64
2022/05/12 03:48:32;;;;;;;15.75;7.90;;;17.90;74.90;;;;;;5054524;28;20068;-66
2022/05/12 03:50:58;;;;;;;12.80;8.13;;;17.90;74.40;;;;;;5054770;28;20051;-64
2022/05/12 03:53:26;;;;;;;12.85;7.75;;;17.90;74.30;;;;;;5054562;28;20053;-64
2022/05/12 03:55:52;;;;;;;22.20;8.48;;;17.80;74.00;;;;;;5054393;28;20031;-65
2022/05/12 03:58:18;;;;;;;29.05;9.05;;;17.80;73.70;;;;;;5054577;28;20033;-64
2022/05/12 04:00:44;;;;;;;15.50;7.80;;;17.80;74.30;;;;;;5054266;28;20025;-65
2022/05/12 04:03:10;;;;;;;14.93;7.82;;;17.80;75.10;;;;;;5054220;28;20032;-65
2022/05/12 04:05:35;;;;;;;23.40;9.43;;;17.80;75.20;;;;;;5054320;28;20032;-65
2022/05/12 04:08:01;;;;;;;14.85;8.02;;;17.80;75.30;;;;;;5053904;28;20041;-64
2022/05/12 04:10:27;;;;;;;18.98;8.02;;;17.80;75.40;;;;;;5053878;28;20021;-64
2022/05/12 04:12:53;;;;;;;17.90;8.15;;;17.80;75.60;;;;;;5053863;28;20107;-64
2022/05/12 04:15:20;;;;;;;16.70;7.82;;;17.70;75.00;;;;;;5053680;28;20024;-63
2022/05/12 04:17:58;;;;;;;13.10;7.70;;;17.70;75.10;;;;;;5053319;28;20021;-64
2022/05/12 04:20:25;;;;;;;26.60;7.82;;;17.70;75.00;;;;;;5053437;28;20523;-64
2022/05/12 04:22:51;;;;;;;18.05;7.60;;;17.70;75.50;;;;;;5053249;28;20473;-64
2022/05/12 04:25:16;;;;;;;21.23;8.48;;;17.70;75.60;;;;;;5052850;28;20028;-63
2022/05/12 04:27:42;;;;;;;17.90;8.15;;;17.70;75.70;;;;;;5053424;28;20114;-64
2022/05/12 04:30:11;;;;;;;21.23;8.38;;;17.70;75.80;;;;;;5053988;28;20029;-64
2022/05/12 04:32:37;;;;;;;13.10;7.45;;;17.70;75.90;;;;;;5053917;28;20092;-64
2022/05/12 04:35:14;;;;;;;16.80;8.00;;;17.70;76.00;;;;;;5053553;28;20036;-64
2022/05/12 04:37:46;;;;;;;17.60;7.95;;;17.70;75.90;;;;;;5053624;28;20033;-64
2022/05/12 04:40:19;;;;;;;30.20;9.48;;;17.70;76.00;;;;;;5053689;28;20025;-64
2022/05/12 04:42:47;;;;;;;15.50;8.10;;;17.80;76.30;;;;;;5053492;28;20024;-64
2022/05/12 04:45:14;;;;;;;16.33;7.97;;;17.80;76.50;;;;;;5053656;28;20021;-64
2022/05/12 04:47:41;;;;;;;12.80;8.23;;;17.80;76.30;;;;;;5053583;28;20434;-65
2022/05/12 04:50:10;;;;;;;19.40;8.48;;;17.80;76.20;;;;;;5053487;28;20028;-64
2022/05/12 04:52:36;;;;;;;17.80;8.68;;;17.80;75.40;;;;;;5053559;28;20096;-67
2022/05/12 04:55:02;;;;;;;15.15;8.40;;;17.90;75.90;;;;;;5053423;28;20028;-64
2022/05/12 04:57:33;;;;;;;16.95;9.05;;;17.90;75.90;;;;;;5053510;28;20470;-69
2022/05/12 04:59:59;;;;;;;20.73;7.82;;;17.90;75.90;;;;;;5053256;28;20037;-65
2022/05/12 05:02:25;;;;;;;19.80;7.70;;;17.90;75.40;;;;;;5053289;28;20025;-68
2022/05/12 05:04:50;;;;;;;17.13;8.20;;;17.90;74.90;;;;;;5053049;28;20021;-66
2022/05/12 05:07:17;;;;;;;15.55;7.30;;;18.00;75.10;;;;;;5051522;28;20473;-65
2022/05/12 05:09:43;;;;;;;19.13;7.57;;;18.00;75.50;;;;;;5052465;28;20021;-64
2022/05/12 05:12:09;;;;;;;13.82;7.72;;;18.00;75.70;;;;;;5052804;28;20462;-65
2022/05/12 05:14:35;;;;;;;14.30;7.50;;;18.00;76.20;;;;;;5051353;28;20036;-67
2022/05/12 05:17:00;;;;;;;16.52;7.22;;;18.00;76.30;;;;;;5052107;28;20025;-64
2022/05/12 05:19:26;;;;;;;14.20;7.07;;;18.00;76.10;;;;;;5052616;28;20025;-66
2022/05/12 05:21:52;;;;;;;11.63;7.20;;;18.00;76.00;;;;;;5052600;28;20377;-66
2022/05/12 05:24:18;;;;;;;22.48;7.00;;;18.10;75.80;;;;;;5051792;28;20025;-65
2022/05/12 05:26:44;;;;;;;13.73;6.75;;;18.10;76.10;;;;;;5052371;28;20063;-64
2022/05/12 05:29:10;;;;;;;16.50;7.32;;;18.10;75.90;;;;;;5052405;28;20024;-65
2022/05/12 05:31:39;;;;;;;15.77;6.72;;;18.10;76.30;;;;;;5052654;28;20143;-69
2022/05/12 05:34:05;;;;;;;10.73;6.60;;;18.20;76.00;;;;;;5052709;28;20496;-64
2022/05/12 05:36:31;;;;;;;10.90;6.32;;;18.20;75.10;;;;;;5052726;28;20083;-68
2022/05/12 05:38:57;;;;;;;13.20;6.18;;;18.30;74.70;;;;;;5052648;28;20381;-69
2022/05/12 05:41:23;;;;;;;13.95;6.40;;;18.30;73.70;;;;;;5052917;28;20053;-64
2022/05/12 05:43:49;;;;;;;17.67;6.45;;;18.40;73.60;;;;;;5052189;28;20648;-64
2022/05/12 05:46:16;;;;;;;15.05;6.32;;;18.40;73.60;;;;;;5051929;28;20400;-69
2022/05/12 05:48:43;;;;;;;11.60;6.60;;;18.50;73.50;;;;;;5052313;28;20428;-64
2022/05/12 05:53:54;;;;;;;19.92;5.97;;;18.70;72.80;;;;;;5052138;28;20447;-65
2022/05/12 05:56:20;;;;;;;19.20;6.35;;;18.70;72.40;;;;;;5052530;28;20466;-64
2022/05/12 05:58:46;;;;;;;14.13;5.78;;;18.80;72.10;;;;;;5052067;28;20393;-64
2022/05/12 06:01:13;;;;;;;19.58;5.97;;;18.80;71.90;;;;;;5052446;28;20020;-64
2022/05/12 06:03:39;;;;;;;15.23;5.55;;;18.90;71.80;;;;;;5052299;28;20048;-68
2022/05/12 06:06:05;;;;;;;14.30;5.57;;;19.00;71.30;;;;;;5052359;28;20017;-69
2022/05/12 06:08:32;;;;;;;16.80;6.15;;;19.00;70.30;;;;;;5052296;28;20037;-64
2022/05/12 06:11:03;;;;;;;15.63;6.30;;;19.00;69.90;;;;;;5051442;28;20017;-67
2022/05/12 06:13:28;;;;;;;28.77;7.78;;;19.10;69.40;;;;;;5052515;28;20380;-64
2022/05/12 06:15:54;;;;;;;20.23;7.47;;;19.10;70.10;;;;;;5052966;28;20025;-64
2022/05/12 06:18:20;;;;;;;13.95;5.75;;;19.20;70.90;;;;;;5052520;28;20025;-64
2022/05/12 06:20:49;;;;;;;12.93;5.88;;;19.30;70.40;;;;;;5051847;28;20029;-64
2022/05/12 06:23:15;;;;;;;17.60;7.30;;;19.30;70.00;;;;;;5051595;28;20021;-64
2022/05/12 06:25:41;;;;;;;18.17;6.85;;;19.40;70.70;;;;;;5052260;28;20025;-65
2022/05/12 06:28:07;;;;;;;13.82;5.80;;;19.50;71.40;;;;;;5055692;28;20057;-64
2022/05/12 06:30:33;;;;;;;16.55;6.90;;;19.50;70.40;;;;;;5056307;28;20021;-69
2022/05/12 06:33:00;;;;;;;22.88;7.85;;;19.50;70.50;;;;;;5056396;28;20090;-64
2022/05/12 06:35:26;;;;;;;17.35;7.00;;;19.60;71.10;;;;;;5056152;28;20057;-69
2022/05/12 06:37:52;;;;;;;12.60;7.20;;;19.70;71.80;;;;;;5056339;28;20452;-63
2022/05/12 06:40:19;;;;;;;17.35;7.53;;;19.70;71.20;;;;;;5056102;28;20083;-65
2022/05/12 06:42:45;;;;;;;17.67;7.70;;;19.80;71.30;;;;;;5056261;28;20025;-68
2022/05/12 06:45:15;;;;;;;17.45;6.90;;;19.80;71.10;;;;;;5056256;28;20097;-64
2022/05/12 06:47:48;;;;;;;12.57;6.45;;;19.90;70.90;;;;;;5056008;28;20041;-65
2022/05/12 06:50:15;;;;;;;11.35;6.15;;;19.90;70.90;;;;;;5055895;28;20036;-64
2022/05/12 06:52:42;;;;;;;15.65;6.35;;;20.00;70.60;;;;;;5055951;28;20082;-64
2022/05/12 06:55:08;;;;;;;14.50;6.97;;;20.00;70.40;;;;;;5055669;28;20021;-64
2022/05/12 06:57:34;;;;;;;22.58;6.82;;;20.10;70.60;;;;;;5055920;28;20063;-65
2022/05/12 06:59:59;;;;;;;11.93;5.85;;;20.10;70.60;;;;;;5055849;28;20025;-64
2022/05/12 07:02:25;;;;;;;17.77;6.53;;;20.20;70.10;;;;;;5055800;28;20029;-64
2022/05/12 07:04:53;;;;;;;17.63;5.70;;;20.20;69.40;;;;;;5055598;28;20025;-64
2022/05/12 07:07:20;;;;;;;12.57;5.70;;;20.30;67.40;;;;;;5055384;28;20465;-64
2022/05/12 07:09:46;;;;;;;14.13;5.68;;;20.30;65.90;;;;;;5055732;28;20021;-63
2022/05/12 07:12:13;;;;;;;13.60;5.30;;;20.40;65.20;;;;;;5055708;28;20036;-65
2022/05/12 07:14:38;;;;;;;12.60;5.53;;;20.40;65.80;;;;;;5055460;28;20082;-66
2022/05/12 07:17:04;;;;;;;12.02;5.45;;;20.50;65.40;;;;;;5055474;28;20393;-69
2022/05/12 07:19:32;;;;;;;15.18;5.40;;;20.50;65.00;;;;;;5055239;28;20025;-63
2022/05/12 07:27:26;;;;;;;11.43;5.05;;;20.70;64.80;;;;;;5055281;28;20067;-69
2022/05/12 07:29:51;;;;;;;12.65;5.25;;;20.80;64.60;;;;;;5055149;28;20025;-64
2022/05/12 07:32:17;;;;;;;9.13;4.70;;;20.80;64.50;;;;;;5055254;28;20366;-68
2022/05/12 07:34:43;;;;;;;13.57;5.55;;;20.80;64.60;;;;;;5055345;28;20106;-65
2022/05/12 07:37:09;;;;;;;15.93;5.13;;;20.90;64.80;;;;;;5054998;28;20048;-69
2022/05/12 07:39:36;;;;;;;13.60;5.50;;;21.00;64.50;;;;;;5055189;28;20029;-68
2022/05/12 07:42:04;;;;;;;13.82;5.35;;;21.00;64.70;;;;;;5055088;28;20044;-69
2022/05/12 07:44:34;;;;;;;15.05;5.43;;;21.10;65.10;;;;;;5054991;28;20045;-64
2022/05/12 07:47:06;;;;;;;12.43;5.60;;;21.10;64.80;;;;;;5055048;28;20112;-64
2022/05/12 07:49:35;;;;;;;11.02;5.20;;;21.20;65.00;;;;;;5055100;28;20072;-64
2022/05/12 07:52:02;;;;;;;16.40;5.43;;;21.20;65.20;;;;;;5054919;28;20066;-64
2022/05/12 07:54:28;;;;;;;14.65;5.63;;;21.20;65.00;;;;;;5055075;28;20489;-64
2022/05/12 07:56:54;;;;;;;16.45;6.07;;;21.30;64.40;;;;;;5054862;28;20045;-64
2022/05/12 07:59:19;;;;;;;20.40;6.10;;;21.40;64.10;;;;;;5054886;28;20462;-64
2022/05/12 08:01:45;;;;;;;12.93;5.82;;;21.40;63.70;;;;;;5054681;28;20043;-64
2022/05/12 08:04:12;;;;;;;10.88;5.47;;;21.50;64.20;;;;;;5054668;28;20031;-68
2022/05/12 08:06:39;;;;;;;15.40;5.10;;;21.60;63.40;;;;;;5054543;28;20056;-66
2022/05/12 08:09:05;;;;;;;13.52;5.97;;;21.60;63.80;;;;;;5054496;28;20043;-68
2022/05/12 08:11:31;;;;;;;14.43;5.32;;;21.70;62.80;;;;;;5054512;28;20381;-68
2022/05/12 08:13:57;;;;;;;17.35;6.07;;;21.70;63.70;;;;;;5054432;28;20029;-69
2022/05/12 08:16:23;;;;;;;10.20;5.88;;;21.80;63.90;;;;;;5054415;28;20025;-64
2022/05/12 08:18:50;;;;;;;15.15;5.80;;;21.80;64.40;;;;;;5054435;28;20069;-64
2022/05/12 08:21:17;;;;;;;16.67;5.50;;;21.90;64.30;;;;;;5054517;28;20053;-63
2022/05/12 08:23:43;;;;;;;20.75;6.15;;;21.90;63.90;;;;;;5053569;28;20090;-67
2022/05/12 08:26:10;;;;;;;16.65;5.93;;;22.00;64.30;;;;;;5053733;28;20485;-67
2022/05/12 08:28:37;;;;;;;9.90;5.15;;;22.00;63.70;;;;;;5053704;28;20041;-65
2022/05/12 08:31:03;;;;;;;11.45;5.50;;;22.10;63.70;;;;;;5053987;28;20049;-64
2022/05/12 08:33:29;;;;;;;10.40;5.55;;;22.10;63.50;;;;;;5052207;28;20033;-64
2022/05/12 08:35:55;;;;;;;13.68;4.82;;;22.20;63.20;;;;;;5052998;28;20047;-69
2022/05/12 08:38:21;;;;;;;11.80;5.22;;;22.20;62.10;;;;;;5053475;28;20028;-69
2022/05/12 08:40:52;;;;;;;12.10;5.50;;;22.30;62.50;;;;;;5053144;28;20431;-65
2022/05/12 08:43:44;;;;;;;9.30;5.35;;;22.30;62.60;;;;;;5052688;28;20080;-64
2022/05/12 08:46:39;;;;;;;9.02;5.28;;;22.30;62.60;;;;;;5053085;28;20070;-65
2022/05/12 08:49:14;;;;;;;10.45;5.55;;;22.40;62.40;;;;;;5051937;28;20068;-64
2022/05/12 08:51:41;;;;;;;13.32;5.55;;;22.40;63.80;;;;;;5053729;28;20425;-67
2022/05/12 08:54:14;;;;;;;14.32;5.63;;;22.50;64.50;;;;;;5053354;28;20370;-67
2022/05/12 08:56:41;;;;;;;12.25;5.40;;;22.60;64.40;;;;;;5053676;28;20018;-63
2022/05/12 08:59:08;;;;;;;12.18;5.50;;;22.60;63.30;;;;;;5051867;28;20044;-66
2022/05/12 09:02:18;;;;;;;9.55;5.45;;;22.70;63.40;;;;;;5051294;28;20017;-67
2022/05/12 09:05:01;;;;;;;8.65;5.60;;;22.80;62.90;;;;;;5053399;28;20029;-64
2022/05/12 09:07:54;;;;;;;14.73;5.70;;;22.80;63.20;;;;;;5053094;28;20033;-69
2022/05/12 09:10:48;;;;;;;19.30;6.18;;;22.90;64.20;;;;;;5053167;28;20021;-65
2022/05/12 09:13:32;;;;;;;13.30;5.72;;;23.00;64.20;;;;;;5053138;28;20028;-64
2022/05/12 09:16:10;;;;;;;10.13;5.50;;;23.10;63.90;;;;;;5053317;28;20017;-64
2022/05/12 09:18:37;;;;;;;13.27;5.80;;;23.20;63.80;;;;;;5053509;28;20057;-64
2022/05/12 09:21:09;;;;;;;12.43;5.50;;;23.20;62.90;;;;;;5053520;28;20421;-64
2022/05/12 09:23:35;;;;;;;15.15;5.97;;;23.30;62.60;;;;;;5053436;28;20025;-66
2022/05/12 09:26:29;;;;;;;13.77;6.05;;;23.30;62.80;;;;;;5053109;28;20029;-70
2022/05/12 09:29:23;;;;;;;12.63;6.13;;;23.40;62.10;;;;;;5053101;28;20044;-64
2022/05/12 09:32:17;;;;;;;10.90;5.43;;;23.40;63.10;;;;;;5053249;28;20083;-64
2022/05/12 09:35:01;;;;;;;14.75;5.15;;;23.50;63.00;;;;;;5053044;28;20025;-64
2022/05/12 09:37:28;;;;;;;9.05;5.25;;;23.60;62.00;;;;;;5052779;28;20090;-64
2022/05/12 09:39:56;;;;;;;11.93;5.20;;;23.60;62.50;;;;;;5052956;28;20036;-64
2022/05/12 09:42:28;;;;;;;10.05;5.70;;;23.70;62.00;;;;;;5053133;28;20484;-64
2022/05/12 09:45:08;;;;;;;12.52;5.65;;;23.80;60.50;;;;;;5053026;28;20017;-66
2022/05/12 09:47:34;;;;;;;17.33;6.25;;;23.80;60.70;;;;;;5052831;28;20037;-64
2022/05/12 09:50:16;;;;;;;11.90;5.50;;;23.90;60.10;;;;;;5035169;28;20377;-65
2022/05/12 09:52:57;;;;;;;13.93;5.40;;;24.00;60.70;;;;;;5053017;28;20021;-64
2022/05/12 09:55:28;;;;;;;6.35;4.63;;;24.00;60.40;;;;;;5053101;28;20029;-64
2022/05/12 09:58:02;;;;;;;15.18;5.78;;;24.10;60.00;;;;;;5052854;28;20074;-65
2022/05/12 10:00:33;;;;;;;13.10;5.20;;;24.10;59.30;;;;;;5054406;28;20504;-65
2022/05/12 10:09:09;;;;;;;13.35;5.28;;;24.30;60.00;;;;;;5056457;28;20086;-64
2022/05/12 10:11:57;;;;;;;9.88;5.22;;;24.40;61.00;;;;;;5056963;28;20108;-71
2022/05/12 10:14:25;;;;;;;10.63;4.97;;;24.40;58.20;;;;;;5056737;28;20032;-65
2022/05/12 10:16:55;;;;;;;13.45;5.43;;;24.40;59.50;;;;;;5056184;28;20091;-65
2022/05/12 10:19:22;;;;;;;11.20;4.70;;;24.50;60.30;;;;;;5056621;28;20087;-64
2022/05/12 10:22:08;;;;;;;9.48;4.70;;;24.60;59.50;;;;;;5056417;28;20482;-69
2022/05/12 10:25:21;;;;;;;15.00;5.10;;;24.70;59.20;;;;;;5048909;28;20474;-66
2022/05/12 10:27:58;;;;;;;10.52;4.80;;;24.70;58.20;;;;;;5028896;28;20040;-64
2022/05/12 10:30:34;;;;;;;12.90;4.50;;;24.80;58.30;;;;;;5056484;28;20033;-65
2022/05/12 10:33:38;;;;;;;8.45;3.72;;;24.80;55.80;;;;;;5055952;28;20029;-64
2022/05/12 10:36:39;;;;;;;13.35;3.88;;;24.90;55.80;;;;;;5056157;28;20469;-64
2022/05/12 10:39:27;;;;;;;11.38;3.75;;;25.00;55.80;;;;;;5056125;28;20541;-68
2022/05/12 10:42:08;;;;;;;7.85;3.70;;;25.00;55.40;;;;;;5056066;28;20021;-69
2022/05/12 10:44:51;;;;;;;10.10;3.72;;;25.20;54.90;;;;;;5056194;28;20029;-64
2022/05/12 10:47:58;;;;;;;10.23;4.22;;;25.20;54.30;;;;;;5055751;28;20423;-64
2022/05/12 10:50:30;;;;;;;13.20;4.90;;;25.30;54.30;;;;;;5038917;28;20106;-64
2022/05/12 10:53:14;;;;;;;8.95;4.10;;;25.40;53.00;;;;;;5056071;28;20051;-69
2022/05/12 10:55:52;;;;;;;8.88;3.78;;;25.50;53.10;;;;;;5056120;28;20425;-65
2022/05/12 10:59:04;;;;;;;8.38;3.85;;;25.60;52.80;;;;;;5055823;28;20025;-68
2022/05/12 11:01:43;;;;;;;11.25;3.80;;;25.70;53.10;;;;;;5046338;28;20125;-64
2022/05/12 11:04:17;;;;;;;11.95;4.38;;;25.70;52.50;;;;;;5052982;28;20529;-63
2022/05/12 11:07:01;;;;;;;10.50;3.70;;;25.80;53.10;;;;;;5052848;28;20118;-63
2022/05/12 11:09:46;;;;;;;10.43;4.00;;;25.90;53.10;;;;;;5054434;28;20098;-64
2022/05/12 11:12:27;;;;;;;10.65;4.07;;;25.90;53.00;;;;;;5054418;28;20028;-63
2022/05/12 11:15:10;;;;;;;13.13;4.68;;;26.00;53.30;;;;;;5052359;28;20057;-64
2022/05/12 11:17:41;;;;;;;12.70;4.65;;;26.10;53.60;;;;;;5052548;28;20040;-63
2022/05/12 11:20:14;;;;;;;10.80;4.70;;;26.10;54.10;;;;;;5053932;28;20017;-64
2022/05/12 11:23:15;;;;;;;10.85;4.88;;;26.10;54.90;;;;;;5055495;28;20090;-67
2022/05/12 11:25:44;;;;;;;12.07;4.60;;;26.20;54.80;;;;;;5042223;28;20045;-64
2022/05/12 11:31:25;;;;;;;8.38;4.45;;;26.20;56.00;;;;;;5051731;28;20044;-64
2022/05/12 11:33:55;;;;;;;12.07;4.25;;;26.20;56.00;;;;;;5052307;28;20052;-64
2022/05/12 11:36:35;;;;;;;14.98;4.88;;;26.20;56.10;;;;;;5053889;28;20025;-64
2022/05/12 11:39:31;;;;;;;10.52;4.38;;;26.20;56.60;;;;;;5054775;28;20029;-63
2022/05/12 11:42:14;;;;;;;9.40;4.78;;;26.20;57.10;;;;;;5054530;28;20104;-64
2022/05/12 11:44:56;;;;;;;10.55;4.00;;;26.20;56.60;;;;;;5054774;28;20359;-65
2022/05/12 11:47:40;;;;;;;10.68;4.93;;;26.20;56.70;;;;;;5054794;28;20033;-64
2022/05/12 11:50:29;;;;;;;12.85;5.18;;;26.20;57.20;;;;;;5054668;28;20024;-63
2022/05/12 11:53:20;;;;;;;12.32;5.43;;;26.10;56.30;;;;;;5049081;28;20037;-64
2022/05/12 11:55:58;;;;;;;11.00;5.82;;;26.10;58.20;;;;;;5054928;28;20044;-64
2022/05/12 11:58:37;;;;;;;9.32;5.15;;;26.20;58.50;;;;;;5054830;28;20055;-63
2022/05/12 12:01:07;;;;;;;12.95;5.45;;;26.20;58.60;;;;;;5054158;28;20453;-64
2022/05/12 12:03:32;;;;;;;16.35;5.90;;;26.20;58.50;;;;;;5054187;28;20033;-64
2022/05/12 12:06:04;;;;;;;11.15;5.85;;;26.20;59.40;;;;;;5054140;28;20029;-63
2022/05/12 12:08:32;;;;;;;13.20;6.03;;;26.20;58.50;;;;;;5054195;28;20162;-63
2022/05/12 12:11:13;;;;;;;17.75;5.60;;;26.20;59.20;;;;;;5054295;28;20036;-63
2022/05/12 12:13:41;;;;;;;11.27;5.72;;;26.10;59.90;;;;;;5054353;28;20029;-64
2022/05/12 12:16:19;;;;;;;15.52;5.72;;;26.10;59.80;;;;;;5053588;28;20017;-64
2022/05/12 12:18:52;;;;;;;16.52;6.68;;;26.20;59.60;;;;;;5054044;28;20036;-63
2022/05/12 12:21:43;;;;;;;14.70;5.57;;;26.20;58.10;;;;;;5053728;28;20021;-63
2022/05/12 12:24:29;;;;;;;12.32;5.25;;;26.10;57.30;;;;;;5051536;28;20108;-64
2022/05/12 12:27:17;;;;;;;17.00;5.50;;;26.10;57.90;;;;;;5050406;28;20060;-64
2022/05/12 12:29:50;;;;;;;12.07;5.43;;;26.10;56.30;;;;;;5052781;28;20028;-65
2022/05/12 12:32:31;;;;;;;13.27;5.22;;;26.00;57.50;;;;;;5054071;28;20414;-63
2022/05/12 12:35:26;;;;;;;10.95;5.20;;;26.10;57.10;;;;;;5053995;28;20096;-63
2022/05/12 12:37:51;;;;;;;21.35;5.93;;;26.00;56.00;;;;;;5053276;28;20041;-63
2022/05/12 12:40:32;;;;;;;13.55;6.07;;;26.00;57.10;;;;;;5053732;28;20057;-64
2022/05/12 12:43:25;;;;;;;15.88;5.32;;;26.10;55.80;;;;;;5053732;28;20021;-64
2022/05/12 12:45:53;;;;;;;10.70;5.60;;;26.00;55.50;;;;;;5053797;28;20557;-64
2022/05/12 12:48:33;;;;;;;9.23;5.20;;;26.00;56.20;;;;;;5053619;28;20037;-64
2022/05/12 12:50:59;;;;;;;8.80;4.65;;;26.00;55.90;;;;;;5053768;28;20021;-64
2022/05/12 12:56:30;;;;;;;10.98;5.10;;;26.10;55.50;;;;;;5053753;28;20399;-63
2022/05/12 12:58:58;;;;;;;18.70;6.05;;;26.10;54.00;;;;;;5050963;28;20035;-64
2022/05/12 13:01:34;;;;;;;15.50;5.40;;;26.20;55.10;;;;;;5050567;28;20043;-62
2022/05/12 13:04:00;;;;;;;9.95;4.95;;;26.20;53.60;;;;;;5034406;28;20496;-64
2022/05/12 13:06:37;;;;;;;10.35;4.97;;;26.30;53.10;;;;;;5053242;28;20017;-64
2022/05/12 13:09:13;;;;;;;13.23;5.20;;;26.50;53.00;;;;;;5053316;28;20091;-63
2022/05/12 13:11:41;;;;;;;13.75;5.95;;;26.60;52.60;;;;;;5053048;28;20028;-65
2022/05/12 13:14:11;;;;;;;11.98;6.05;;;26.60;51.70;;;;;;5053152;28;20025;-65
2022/05/12 13:16:39;;;;;;;11.80;5.90;;;26.70;52.00;;;;;;5053196;28;20017;-65
2022/05/12 13:19:07;;;;;;;13.60;6.45;;;26.80;52.10;;;;;;5053249;28;20036;-64
2022/05/12 13:21:43;;;;;;;19.42;6.10;;;26.80;50.80;;;;;;5052825;28;20017;-66